עמוד ראשי
METAR-TAF:

METAR-TAF

שדות תעופה :

Quinhagak, אלסקה, ארצות הברית

קו רוחב: 59-45-18N, קו אורך: 161-50-43W, גובה: 13מטר

תצפית מזג אוויר נוכחית

הדו"ח נערך לפני 15דקות, בשעה 11:56 UTC
רוח 10קשר מכיוון מערב/צפון-מערב
טמפרטורת 12 צלסיוס
לחות 100%
לחץ 1017 hPa
ראות: 16.1קילומטר
עננים פזורים בגובה 4000רגל

METAR: PAQH 221156Z AUTO 30010KT 10SM SCT040 12/12 A3003 RMK AO2 SLP168 60000 T01220117 10178 20122 52003

זמן: 04:11 (12:11 UTC)


TAF: חסר

תצפיות ותחזיות מזג אוויר לגבי יותר מ- 4,000 שדות תעופה ברחבי העולם. דוחות METAR ו- TAF.

התחנות הזמינות מסומנות בנקודות צהובות ואדומות על גבי המפה.

העבר את העכבר לנקודה הצבעונית על מנת לראות את שם התחנה.

לאחר מכן, לחץ כדי לראות את תוכן ואת תחזיות מזג האוויר.

כדי לשנות את המפה: לחץ על הכפתורים הירוקים עם הפלוס השחור כדי להתקרב; על הכפתור הירוק עם המקף כדי להתרחק; או בחיצים הירוקים למפות סמוכות.


METAR-TAF: